Time;durP1;ratioP1;P1;durP2;ratioP2;P2;SDS_P1;SDS_P2;PMS_P1;PMS_P2;Temp;Humidity;BMP_temperature;BMP_pressure;BME280_temperature;BME280_humidity;BME280_pressure;Samples;Min_cycle;Max_cycle;Signal;HPM_P1;HPM_P2
2024/01/03 00:00:33;;;;;;;3.38;1.27;;;11.20;99.90;;;;;;5054105;28;20232;-45
2024/01/03 00:02:59;;;;;;;6.68;1.80;;;11.20;99.90;;;;;;5053747;28;20178;-45
2024/01/03 00:05:45;;;;;;;7.43;1.75;;;11.20;99.90;;;;;;5053834;28;20536;-46
2024/01/03 00:08:30;;;;;;;5.32;1.30;;;11.10;99.90;;;;;;5053420;28;20252;-46
2024/01/03 00:10:57;;;;;;;10.18;2.28;;;11.00;99.90;;;;;;5042652;28;20203;-46
2024/01/03 00:13:38;;;;;;;8.55;2.20;;;11.00;99.90;;;;;;5032484;28;20234;-45
2024/01/03 00:16:03;;;;;;;10.45;2.30;;;11.00;99.90;;;;;;5033536;28;20167;-45
2024/01/03 00:18:49;;;;;;;6.35;1.98;;;11.00;99.90;;;;;;5033587;28;20178;-46
2024/01/03 00:21:22;;;;;;;5.47;1.10;;;11.00;99.90;;;;;;5033533;28;20175;-46
2024/01/03 00:23:50;;;;;;;8.88;2.47;;;10.90;99.90;;;;;;5033408;28;20534;-46
2024/01/03 00:26:16;;;;;;;6.53;1.23;;;10.90;99.90;;;;;;5033420;28;20646;-45
2024/01/03 00:28:42;;;;;;;3.80;1.33;;;10.90;99.90;;;;;;5033502;28;20207;-45
2024/01/03 00:31:36;;;;;;;7.13;1.38;;;10.90;99.90;;;;;;5033839;28;20262;-47
2024/01/03 00:34:03;;;;;;;6.57;1.65;;;10.90;99.90;;;;;;5033519;28;20182;-46
2024/01/03 00:36:29;;;;;;;6.20;1.65;;;10.90;99.90;;;;;;5033242;28;20160;-46
2024/01/03 00:38:55;;;;;;;7.30;1.70;;;10.90;99.90;;;;;;5033441;28;20250;-47
2024/01/03 00:41:20;;;;;;;3.72;1.50;;;10.90;99.90;;;;;;5033328;28;20179;-46
2024/01/03 00:43:46;;;;;;;5.78;1.65;;;10.90;99.90;;;;;;5033025;28;20171;-45
2024/01/03 00:46:12;;;;;;;5.40;1.67;;;10.90;99.90;;;;;;5032997;28;20175;-47
2024/01/03 00:48:40;;;;;;;7.38;2.15;;;10.90;99.90;;;;;;5033341;28;20203;-46
2024/01/03 00:51:07;;;;;;;9.43;2.25;;;11.00;99.90;;;;;;5033435;28;20171;-46
2024/01/03 00:53:32;;;;;;;4.93;1.52;;;10.90;99.90;;;;;;5033470;28;20190;-46
2024/01/03 00:55:59;;;;;;;8.82;1.58;;;10.90;99.90;;;;;;5032766;28;20219;-50
2024/01/03 00:58:24;;;;;;;5.88;1.42;;;10.90;99.90;;;;;;5032823;28;20167;-46
2024/01/03 01:00:50;;;;;;;8.20;1.67;;;10.90;99.90;;;;;;5032688;28;20178;-47
2024/01/03 01:03:16;;;;;;;7.00;1.73;;;10.90;99.90;;;;;;5032652;28;20250;-46
2024/01/03 01:05:43;;;;;;;1.55;0.65;;;10.90;99.90;;;;;;5032468;28;20362;-46
2024/01/03 01:08:08;;;;;;;6.47;1.67;;;10.80;99.90;;;;;;5032928;28;20211;-45
2024/01/03 01:10:34;;;;;;;4.03;1.25;;;10.90;99.90;;;;;;5043656;28;20171;-47
2024/01/03 01:12:59;;;;;;;4.70;0.98;;;11.00;99.90;;;;;;5052458;28;20178;-47
2024/01/03 01:15:25;;;;;;;5.45;1.27;;;10.90;99.90;;;;;;5052388;28;20166;-46
2024/01/03 01:17:51;;;;;;;1.88;0.85;;;10.90;99.90;;;;;;5052407;28;20171;-48
2024/01/03 01:20:16;;;;;;;6.05;1.05;;;10.80;99.90;;;;;;5051106;28;20162;-46
2024/01/03 01:22:42;;;;;;;2.58;1.00;;;10.80;99.90;;;;;;5052248;28;20171;-46
2024/01/03 01:25:08;;;;;;;6.40;1.50;;;10.70;99.90;;;;;;5052216;28;20214;-47
2024/01/03 01:27:33;;;;;;;7.70;1.52;;;10.70;99.90;;;;;;5051991;28;20186;-48
2024/01/03 01:29:59;;;;;;;2.63;1.05;;;10.70;99.90;;;;;;5052110;28;20257;-47
2024/01/03 01:32:24;;;;;;;3.97;1.50;;;10.70;99.90;;;;;;5052082;28;20623;-46
2024/01/03 01:34:50;;;;;;;5.07;1.45;;;10.80;99.90;;;;;;5052033;28;20574;-47
2024/01/03 01:37:16;;;;;;;2.65;0.68;;;10.80;99.90;;;;;;5052061;28;20199;-47
2024/01/03 01:39:44;;;;;;;5.90;2.22;;;10.80;99.90;;;;;;5047966;28;20172;-47
2024/01/03 01:42:10;;;;;;;1.85;1.00;;;10.80;99.90;;;;;;5032668;28;20175;-47
2024/01/03 01:44:35;;;;;;;3.72;1.02;;;10.70;99.90;;;;;;5032407;28;20164;-47
2024/01/03 01:47:01;;;;;;;8.52;1.38;;;10.80;99.90;;;;;;5031803;28;20167;-47
2024/01/03 01:49:27;;;;;;;4.43;0.98;;;10.80;99.90;;;;;;5031871;28;20272;-46
2024/01/03 01:51:53;;;;;;;2.83;1.10;;;10.70;99.90;;;;;;5031767;28;20168;-46
2024/01/03 01:54:20;;;;;;;5.85;2.30;;;10.80;99.90;;;;;;5031807;28;20627;-46
2024/01/03 01:56:47;;;;;;;3.63;1.27;;;10.80;99.90;;;;;;5031604;28;20272;-47
2024/01/03 01:59:14;;;;;;;4.85;1.88;;;10.80;99.90;;;;;;5031674;28;20168;-48
2024/01/03 02:01:40;;;;;;;4.22;1.45;;;10.80;99.90;;;;;;5032099;28;20646;-46
2024/01/03 02:04:07;;;;;;;1.20;1.10;;;12.20;99.90;;;;;;5032153;28;20171;-48
2024/01/03 02:06:34;;;;;;;4.80;1.20;;;10.80;99.90;;;;;;5031662;28;20246;-47
2024/01/03 02:09:00;;;;;;;3.53;1.83;;;10.90;99.90;;;;;;5033135;28;20210;-47
2024/01/03 02:11:26;;;;;;;5.60;1.00;;;10.90;99.90;;;;;;5051405;28;20166;-47
2024/01/03 02:13:51;;;;;;;5.72;1.50;;;10.80;99.90;;;;;;5051397;28;20171;-46
2024/01/03 02:16:17;;;;;;;5.35;1.25;;;10.90;99.90;;;;;;5051342;28;20178;-46
2024/01/03 02:18:44;;;;;;;5.57;1.58;;;10.90;99.90;;;;;;5051355;28;20163;-47
2024/01/03 02:21:16;;;;;;;3.00;0.95;;;10.90;99.90;;;;;;5051590;28;20197;-47
2024/01/03 02:23:45;;;;;;;5.70;1.40;;;10.90;99.90;;;;;;5051263;28;20174;-48
2024/01/03 02:26:11;;;;;;;3.33;1.15;;;10.80;99.90;;;;;;5051627;28;20253;-47
2024/01/03 02:28:36;;;;;;;1.83;1.30;;;10.80;99.90;;;;;;5051775;28;20733;-47
2024/01/03 02:31:02;;;;;;;5.63;1.00;;;10.80;99.90;;;;;;5051365;28;20208;-47
2024/01/03 02:33:28;;;;;;;4.25;1.23;;;10.80;99.90;;;;;;5051308;28;20255;-47
2024/01/03 02:35:54;;;;;;;7.15;1.17;;;10.70;99.90;;;;;;5050395;28;20166;-46
2024/01/03 02:38:21;;;;;;;3.80;1.25;;;10.80;99.90;;;;;;5051405;28;20224;-47
2024/01/03 02:40:47;;;;;;;6.80;1.20;;;10.70;99.90;;;;;;5049046;28;20167;-47
2024/01/03 02:43:13;;;;;;;3.65;1.00;;;10.70;99.90;;;;;;5051034;28;20664;-47
2024/01/03 02:45:38;;;;;;;2.15;1.45;;;10.70;99.90;;;;;;5051685;28;20585;-47
2024/01/03 02:48:04;;;;;;;2.80;1.30;;;10.70;99.90;;;;;;5050960;28;20198;-46
2024/01/03 02:50:30;;;;;;;3.83;0.80;;;10.70;99.90;;;;;;5051054;28;20292;-47
2024/01/03 02:52:55;;;;;;;4.65;1.80;;;10.70;99.90;;;;;;5051048;28;20165;-49
2024/01/03 02:55:21;;;;;;;2.85;0.77;;;10.70;99.90;;;;;;5050801;28;20214;-47
2024/01/03 02:57:47;;;;;;;4.60;1.23;;;10.70;99.90;;;;;;5051183;28;20178;-47
2024/01/03 03:00:13;;;;;;;4.10;1.60;;;10.70;99.90;;;;;;5050894;28;20167;-47
2024/01/03 03:02:39;;;;;;;5.97;1.60;;;10.70;99.90;;;;;;5051610;28;20171;-47
2024/01/03 03:05:04;;;;;;;3.45;1.17;;;10.70;99.90;;;;;;5050921;28;20631;-48
2024/01/03 03:07:30;;;;;;;4.03;1.15;;;10.70;99.90;;;;;;5051042;28;20175;-47
2024/01/03 03:09:55;;;;;;;6.22;1.60;;;10.60;99.90;;;;;;5038116;28;20711;-48
2024/01/03 03:12:21;;;;;;;2.85;1.02;;;10.60;99.90;;;;;;5031203;28;20253;-47
2024/01/03 03:14:47;;;;;;;1.35;0.57;;;10.60;99.90;;;;;;5030858;28;20182;-48
2024/01/03 03:17:13;;;;;;;2.78;0.95;;;10.60;99.90;;;;;;5030843;28;20164;-47
2024/01/03 03:19:38;;;;;;;2.95;1.00;;;10.60;99.90;;;;;;5031279;28;20170;-47
2024/01/03 03:22:04;;;;;;;4.53;1.75;;;10.60;99.90;;;;;;5030774;28;20568;-47
2024/01/03 03:24:29;;;;;;;5.28;1.40;;;10.60;99.90;;;;;;5030769;28;20533;-47
2024/01/03 03:26:55;;;;;;;4.63;2.22;;;10.50;99.90;;;;;;5030731;28;20701;-47
2024/01/03 03:29:21;;;;;;;2.58;0.85;;;10.50;99.90;;;;;;5030642;28;20211;-47
2024/01/03 03:31:46;;;;;;;7.18;1.65;;;10.50;99.90;;;;;;5030739;28;20246;-47
2024/01/03 03:34:12;;;;;;;5.80;1.40;;;10.50;99.90;;;;;;5030650;28;20237;-47
2024/01/03 03:36:37;;;;;;;5.07;1.30;;;10.50;99.90;;;;;;5031418;28;20250;-47
2024/01/03 03:39:07;;;;;;;4.82;1.48;;;10.50;99.90;;;;;;5035558;28;20163;-47
2024/01/03 03:41:33;;;;;;;8.23;1.92;;;10.50;99.90;;;;;;5050565;28;20171;-47
2024/01/03 03:43:58;;;;;;;4.85;1.40;;;10.50;99.90;;;;;;5050452;28;20171;-47
2024/01/03 03:46:24;;;;;;;7.70;2.13;;;10.40;99.90;;;;;;5050739;28;20163;-47
2024/01/03 03:48:49;;;;;;;6.78;1.90;;;10.40;99.90;;;;;;5054024;28;20221;-49
2024/01/03 03:51:15;;;;;;;6.30;1.33;;;10.40;99.90;;;;;;5054393;28;20169;-49
2024/01/03 03:53:40;;;;;;;4.20;1.45;;;10.40;99.90;;;;;;5054248;28;20625;-50
2024/01/03 03:56:06;;;;;;;5.60;1.42;;;10.30;99.90;;;;;;5054337;28;20215;-47
2024/01/03 03:58:32;;;;;;;6.88;1.92;;;10.40;99.90;;;;;;5053882;28;20170;-48
2024/01/03 04:00:57;;;;;;;6.03;1.60;;;10.40;99.90;;;;;;5053892;28;20174;-49
2024/01/03 04:03:23;;;;;;;11.45;2.13;;;10.30;99.90;;;;;;5053854;28;20167;-48
2024/01/03 04:05:48;;;;;;;4.18;1.45;;;10.40;99.90;;;;;;5053762;28;20185;-48
2024/01/03 04:08:14;;;;;;;3.08;0.85;;;10.40;99.90;;;;;;5052849;28;20203;-48
2024/01/03 04:10:40;;;;;;;4.28;1.80;;;10.50;99.90;;;;;;5053671;28;20250;-49
2024/01/03 04:13:06;;;;;;;4.72;1.38;;;10.40;99.90;;;;;;5054086;28;20181;-47
2024/01/03 04:15:32;;;;;;;5.65;2.15;;;10.50;99.90;;;;;;5053566;28;20225;-50
2024/01/03 04:17:58;;;;;;;13.10;1.65;;;10.40;99.90;;;;;;5053442;28;20171;-48
2024/01/03 04:20:23;;;;;;;6.13;2.17;;;10.50;99.90;;;;;;5053734;28;20174;-48
2024/01/03 04:22:49;;;;;;;8.05;2.08;;;10.50;99.90;;;;;;5053762;28;20178;-46
2024/01/03 04:25:14;;;;;;;7.22;1.35;;;10.50;99.90;;;;;;5053588;28;20170;-48
2024/01/03 04:27:40;;;;;;;6.97;2.00;;;10.40;99.90;;;;;;5053487;28;20177;-48
2024/01/03 04:30:06;;;;;;;4.20;1.35;;;10.40;99.90;;;;;;5053780;28;20171;-49
2024/01/03 04:32:31;;;;;;;7.35;1.67;;;10.40;99.90;;;;;;5053212;28;20155;-48
2024/01/03 04:34:57;;;;;;;6.30;1.75;;;10.40;99.90;;;;;;5053159;28;20167;-47
2024/01/03 04:37:23;;;;;;;5.95;1.80;;;10.50;99.90;;;;;;5053153;28;20169;-46
2024/01/03 04:39:48;;;;;;;7.82;1.95;;;10.50;99.90;;;;;;5038386;28;20175;-47
2024/01/03 04:42:14;;;;;;;8.95;2.33;;;10.50;99.90;;;;;;5033108;28;20176;-47
2024/01/03 04:44:43;;;;;;;5.82;1.83;;;10.50;99.90;;;;;;5033416;28;20197;-47
2024/01/03 04:47:08;;;;;;;5.95;1.70;;;10.50;99.90;;;;;;5033723;28;20179;-47
2024/01/03 04:49:34;;;;;;;4.82;2.15;;;10.50;99.90;;;;;;5032880;28;20744;-48
2024/01/03 04:52:00;;;;;;;5.90;1.83;;;10.50;99.90;;;;;;5033008;28;20167;-47
2024/01/03 04:54:25;;;;;;;10.38;2.03;;;10.50;99.90;;;;;;5032933;28;20674;-48
2024/01/03 04:56:52;;;;;;;10.20;2.60;;;10.40;99.90;;;;;;5032835;28;20180;-47
2024/01/03 04:59:17;;;;;;;10.07;2.08;;;10.40;99.90;;;;;;5032100;28;20159;-46
2024/01/03 05:01:43;;;;;;;10.73;1.88;;;10.30;99.90;;;;;;5032756;28;20696;-46
2024/01/03 05:04:08;;;;;;;5.50;2.15;;;10.20;99.90;;;;;;5033186;28;20210;-47
2024/01/03 05:06:35;;;;;;;6.85;1.58;;;10.30;99.90;;;;;;5032780;28;20202;-46
2024/01/03 05:09:01;;;;;;;7.03;1.90;;;10.20;99.90;;;;;;5044142;28;20255;-46
2024/01/03 05:11:26;;;;;;;9.00;1.60;;;10.20;99.90;;;;;;5052491;28;20198;-46
2024/01/03 05:13:52;;;;;;;3.92;1.65;;;10.20;99.90;;;;;;5052451;28;20195;-50
2024/01/03 05:16:18;;;;;;;6.68;1.60;;;10.20;99.90;;;;;;5051111;28;20319;-47
2024/01/03 05:18:43;;;;;;;5.28;1.70;;;10.10;99.90;;;;;;5052401;28;20174;-47
2024/01/03 05:21:09;;;;;;;5.40;1.65;;;10.10;99.90;;;;;;5052746;28;20165;-46
2024/01/03 05:23:34;;;;;;;7.53;1.90;;;10.10;99.90;;;;;;5052729;28;20166;-46
2024/01/03 05:26:00;;;;;;;8.73;2.00;;;10.10;99.90;;;;;;5052386;28;20179;-47
2024/01/03 05:28:26;;;;;;;4.22;1.80;;;10.10;99.90;;;;;;5052302;28;20243;-46
2024/01/03 05:30:51;;;;;;;5.97;1.85;;;10.10;99.90;;;;;;5052168;28;20175;-48
2024/01/03 05:33:17;;;;;;;8.27;2.03;;;10.10;99.90;;;;;;5052209;28;20237;-49
2024/01/03 05:35:42;;;;;;;5.97;1.52;;;10.20;99.90;;;;;;5052126;28;20181;-47
2024/01/03 05:38:08;;;;;;;10.13;1.92;;;10.20;99.90;;;;;;5048266;28;20175;-46
2024/01/03 05:40:34;;;;;;;7.65;2.30;;;10.20;99.90;;;;;;5032315;28;20171;-49
2024/01/03 05:43:00;;;;;;;9.18;1.98;;;10.20;99.90;;;;;;5032387;28;20171;-48
2024/01/03 05:45:25;;;;;;;14.10;3.00;;;10.20;99.90;;;;;;5032019;28;20198;-51
2024/01/03 05:47:51;;;;;;;12.63;2.03;;;10.20;99.90;;;;;;5031826;28;20626;-48
2024/01/03 05:50:17;;;;;;;6.90;1.48;;;10.20;99.90;;;;;;5031957;28;20534;-54
2024/01/03 05:52:43;;;;;;;10.95;2.17;;;10.20;99.90;;;;;;5031869;28;20213;-52
2024/01/03 05:55:08;;;;;;;11.23;1.80;;;10.20;99.90;;;;;;5032138;28;20242;-54
2024/01/03 05:57:34;;;;;;;5.30;1.65;;;10.20;99.90;;;;;;5031744;28;20160;-54
2024/01/03 06:00:00;;;;;;;12.32;2.63;;;10.20;99.90;;;;;;5031633;28;20163;-53
2024/01/03 06:02:25;;;;;;;7.88;1.92;;;10.20;99.90;;;;;;5031599;28;20513;-53
2024/01/03 06:04:51;;;;;;;13.75;3.38;;;10.20;99.90;;;;;;5031620;28;20627;-50
2024/01/03 06:07:16;;;;;;;11.30;3.13;;;10.30;99.90;;;;;;5031809;28;20207;-46
2024/01/03 06:09:42;;;;;;;10.48;2.25;;;10.30;99.90;;;;;;5051138;28;20210;-47
2024/01/03 06:12:08;;;;;;;15.35;3.45;;;10.30;99.90;;;;;;5050684;28;20175;-49
2024/01/03 06:14:33;;;;;;;10.82;2.15;;;10.30;99.90;;;;;;5051315;28;20162;-46
2024/01/03 06:16:59;;;;;;;9.80;2.15;;;10.30;99.90;;;;;;5051037;28;20159;-46
2024/01/03 06:19:24;;;;;;;16.42;3.17;;;10.30;99.90;;;;;;5051268;28;20174;-47
2024/01/03 06:21:50;;;;;;;11.57;2.15;;;10.30;99.90;;;;;;5051297;28;20171;-46
2024/01/03 06:24:15;;;;;;;5.68;2.30;;;10.30;99.90;;;;;;5051286;28;20174;-48
2024/01/03 06:26:41;;;;;;;11.05;2.03;;;10.30;99.90;;;;;;5051157;28;20166;-52
2024/01/03 06:29:07;;;;;;;10.27;2.17;;;10.30;99.90;;;;;;5051390;28;20301;-53
2024/01/03 06:31:32;;;;;;;11.32;2.53;;;10.40;99.90;;;;;;5049848;28;20198;-51
2024/01/03 06:33:58;;;;;;;9.45;2.10;;;10.40;99.90;;;;;;5051120;28;20248;-53
2024/01/03 06:36:23;;;;;;;13.77;2.50;;;10.50;99.90;;;;;;5051149;28;20561;-54
2024/01/03 06:38:50;;;;;;;11.85;2.40;;;10.50;99.90;;;;;;5037784;28;20631;-53
2024/01/03 06:41:16;;;;;;;11.18;2.20;;;10.50;99.90;;;;;;5031156;28;20163;-54
2024/01/03 06:43:41;;;;;;;7.60;1.73;;;10.50;99.90;;;;;;5031338;28;20525;-53
2024/01/03 06:46:07;;;;;;;9.05;2.45;;;10.50;99.90;;;;;;5031657;28;20164;-50
2024/01/03 06:48:32;;;;;;;8.38;2.10;;;10.60;99.90;;;;;;5031010;28;20203;-53
2024/01/03 06:51:02;;;;;;;11.65;2.83;;;10.50;99.90;;;;;;5029852;28;20233;-53
2024/01/03 06:53:28;;;;;;;7.38;2.00;;;10.50;99.90;;;;;;5031324;28;20182;-51
2024/01/03 06:55:53;;;;;;;13.52;2.10;;;10.50;99.90;;;;;;5030797;28;20215;-50
2024/01/03 06:58:19;;;;;;;8.70;2.08;;;10.50;99.90;;;;;;5031013;28;20215;-53
2024/01/03 07:00:45;;;;;;;2.88;1.70;;;10.50;99.90;;;;;;5031233;28;20673;-51
2024/01/03 07:03:11;;;;;;;11.15;1.90;;;10.50;99.90;;;;;;5031135;28;20167;-52
2024/01/03 07:05:36;;;;;;;10.90;2.30;;;10.50;99.90;;;;;;5031486;28;20538;-52
2024/01/03 07:08:02;;;;;;;8.50;1.77;;;10.50;99.90;;;;;;5040927;28;20178;-53
2024/01/03 07:10:31;;;;;;;17.08;3.25;;;10.50;99.90;;;;;;5050766;28;20253;-53
2024/01/03 07:12:58;;;;;;;11.15;2.13;;;10.50;99.90;;;;;;5050490;28;20178;-54
2024/01/03 07:15:25;;;;;;;5.47;2.03;;;10.50;99.90;;;;;;5050429;28;20167;-54
2024/01/03 07:17:50;;;;;;;8.88;2.15;;;10.50;99.90;;;;;;5050997;28;20198;-54
2024/01/03 07:20:16;;;;;;;15.38;2.90;;;10.50;99.90;;;;;;5050719;28;20213;-54
2024/01/03 07:22:42;;;;;;;9.43;2.35;;;10.50;99.90;;;;;;5053438;28;20166;-54
2024/01/03 07:25:07;;;;;;;8.10;1.75;;;10.50;99.90;;;;;;5055127;28;20175;-51
2024/01/03 07:27:33;;;;;;;7.95;1.67;;;10.50;99.90;;;;;;5052789;28;20227;-52
2024/01/03 07:29:59;;;;;;;6.07;2.45;;;10.50;99.90;;;;;;5053165;28;20388;-54
2024/01/03 07:32:24;;;;;;;6.20;2.28;;;10.50;99.90;;;;;;5054449;28;20159;-52
2024/01/03 07:34:50;;;;;;;8.43;1.45;;;10.50;99.90;;;;;;5054421;28;20174;-48
2024/01/03 07:37:16;;;;;;;10.32;1.83;;;10.50;99.90;;;;;;5053526;28;20755;-47
2024/01/03 07:39:42;;;;;;;1.63;0.90;;;10.50;99.90;;;;;;5052751;28;20210;-51
2024/01/03 07:42:09;;;;;;;6.30;1.30;;;10.50;99.90;;;;;;5053520;28;20195;-49
2024/01/03 07:44:41;;;;;;;2.75;1.20;;;10.60;99.90;;;;;;5054931;28;20602;-50
2024/01/03 07:47:10;;;;;;;5.53;1.45;;;10.50;99.90;;;;;;5053291;28;20224;-49
2024/01/03 07:49:39;;;;;;;3.95;1.38;;;10.50;99.90;;;;;;5052892;28;20233;-50
2024/01/03 07:52:05;;;;;;;3.60;1.80;;;10.60;99.90;;;;;;5053216;28;20171;-46
2024/01/03 07:54:31;;;;;;;3.65;1.23;;;10.50;99.90;;;;;;5052148;28;20175;-47
2024/01/03 07:56:57;;;;;;;10.23;1.50;;;10.50;99.90;;;;;;5053999;28;20179;-47
2024/01/03 07:59:23;;;;;;;7.38;1.90;;;10.50;99.90;;;;;;5053921;28;20194;-46
2024/01/03 08:01:49;;;;;;;19.85;2.03;;;10.50;99.90;;;;;;5053924;28;20614;-47
2024/01/03 08:04:16;;;;;;;8.15;1.50;;;10.50;99.90;;;;;;5053825;28;20211;-47
2024/01/03 08:06:42;;;;;;;4.70;1.45;;;10.50;99.90;;;;;;5053954;28;20206;-47
2024/01/03 08:09:07;;;;;;;4.40;1.13;;;10.50;99.90;;;;;;5035271;28;20242;-46
2024/01/03 08:11:33;;;;;;;7.32;1.70;;;10.50;99.90;;;;;;5033676;28;20610;-48
2024/01/03 08:13:59;;;;;;;4.22;1.30;;;10.40;99.90;;;;;;5033233;28;20175;-47
2024/01/03 08:16:24;;;;;;;5.07;1.65;;;10.50;99.90;;;;;;5033359;28;20178;-48
2024/01/03 08:18:50;;;;;;;5.82;2.13;;;10.50;99.90;;;;;;5033216;28;20182;-47
2024/01/03 08:21:15;;;;;;;10.35;2.58;;;10.50;99.90;;;;;;5033585;28;20179;-47
2024/01/03 08:23:42;;;;;;;9.13;1.80;;;10.50;99.90;;;;;;5033519;28;20175;-46
2024/01/03 08:26:12;;;;;;;11.73;2.63;;;10.50;99.90;;;;;;5034193;28;20181;-47
2024/01/03 08:28:40;;;;;;;6.00;1.50;;;10.50;99.90;;;;;;5033775;28;20203;-46
2024/01/03 08:31:06;;;;;;;6.97;1.50;;;10.50;99.90;;;;;;5033643;28;20175;-46
2024/01/03 08:33:36;;;;;;;4.07;1.42;;;10.50;99.90;;;;;;5032106;28;20183;-46
2024/01/03 08:36:02;;;;;;;7.15;1.92;;;10.50;99.90;;;;;;5033522;28;20194;-46
2024/01/03 08:38:28;;;;;;;3.40;1.60;;;10.40;99.90;;;;;;5045944;28;20186;-46
2024/01/03 08:40:53;;;;;;;4.93;2.03;;;10.40;99.90;;;;;;5053130;28;20170;-46
2024/01/03 08:43:19;;;;;;;5.72;1.30;;;10.40;99.90;;;;;;5053139;28;20224;-45
2024/01/03 08:45:44;;;;;;;8.38;1.85;;;10.40;99.90;;;;;;5052974;28;20529;-46
2024/01/03 08:48:10;;;;;;;6.95;1.42;;;10.40;99.90;;;;;;5052908;28;20285;-45
2024/01/03 08:50:35;;;;;;;4.38;1.10;;;10.40;99.90;;;;;;5052784;28;20178;-45
2024/01/03 08:53:01;;;;;;;3.80;1.38;;;10.30;99.90;;;;;;5053141;28;20167;-45
2024/01/03 08:55:26;;;;;;;3.72;1.25;;;10.30;99.90;;;;;;5052690;28;20699;-46
2024/01/03 08:57:56;;;;;;;6.78;1.23;;;10.40;99.90;;;;;;5053037;28;20571;-45
2024/01/03 09:00:23;;;;;;;2.42;0.93;;;10.40;99.90;;;;;;5052843;28;20186;-46
2024/01/03 09:02:48;;;;;;;3.45;0.98;;;10.50;99.90;;;;;;5052731;28;20253;-46
2024/01/03 09:05:14;;;;;;;3.17;1.20;;;10.50;99.90;;;;;;5052665;28;20317;-46
2024/01/03 09:07:42;;;;;;;5.88;1.33;;;10.40;99.90;;;;;;5046089;28;20179;-46
2024/01/03 09:10:08;;;;;;;2.55;1.10;;;10.40;99.90;;;;;;5033017;28;20294;-46
2024/01/03 09:12:33;;;;;;;2.30;1.00;;;10.30;99.90;;;;;;5032601;28;20305;-46
2024/01/03 09:14:59;;;;;;;2.33;0.90;;;10.30;99.90;;;;;;5032504;28;20172;-46
2024/01/03 09:17:24;;;;;;;6.45;1.83;;;10.40;99.90;;;;;;5032506;28;20246;-46
2024/01/03 09:19:50;;;;;;;4.88;1.52;;;10.40;99.90;;;;;;5031267;28;20623;-45
2024/01/03 09:22:16;;;;;;;5.00;1.27;;;10.40;99.90;;;;;;5032416;28;20226;-46
2024/01/03 09:24:42;;;;;;;6.35;1.52;;;10.40;99.90;;;;;;5032033;28;20627;-46
2024/01/03 09:27:07;;;;;;;3.20;1.38;;;10.40;99.90;;;;;;5032853;28;20174;-46
2024/01/03 09:29:33;;;;;;;6.75;1.55;;;10.50;99.90;;;;;;5032223;28;20199;-46
2024/01/03 09:31:58;;;;;;;6.72;1.83;;;10.60;99.90;;;;;;5032468;28;20199;-46
2024/01/03 09:34:24;;;;;;;3.80;0.95;;;10.70;99.90;;;;;;5032220;28;20179;-46
2024/01/03 09:36:52;;;;;;;7.35;1.85;;;10.80;99.90;;;;;;5034919;28;20175;-46
2024/01/03 09:39:18;;;;;;;4.32;1.30;;;10.80;99.90;;;;;;5052064;28;20211;-46
2024/01/03 09:41:44;;;;;;;6.18;1.77;;;10.80;99.90;;;;;;5051951;28;20178;-47
2024/01/03 09:44:10;;;;;;;5.53;2.08;;;10.90;99.90;;;;;;5051735;28;20159;-46
2024/01/03 09:46:36;;;;;;;5.18;1.55;;;10.80;99.90;;;;;;5052340;28;20642;-46
2024/01/03 09:49:02;;;;;;;13.52;2.13;;;10.80;99.90;;;;;;5051694;28;20245;-46
2024/01/03 09:51:28;;;;;;;5.47;2.17;;;10.80;99.90;;;;;;5051749;28;20166;-46
2024/01/03 09:53:54;;;;;;;14.60;2.95;;;10.80;99.90;;;;;;5051772;28;20171;-46
2024/01/03 09:56:20;;;;;;;9.10;2.58;;;10.90;99.90;;;;;;5051635;28;20698;-47
2024/01/03 09:58:46;;;;;;;11.23;2.33;;;10.90;99.90;;;;;;5051371;28;20209;-46
2024/01/03 10:01:12;;;;;;;9.13;2.47;;;10.70;99.90;;;;;;5051494;28;20171;-46
2024/01/03 10:03:38;;;;;;;11.50;2.40;;;10.70;99.90;;;;;;5052049;28;20189;-47
2024/01/03 10:06:13;;;;;;;12.55;3.38;;;10.60;99.90;;;;;;5050511;28;20244;-46
2024/01/03 10:08:39;;;;;;;12.10;2.63;;;10.60;99.90;;;;;;5033671;28;20202;-46
2024/01/03 10:11:21;;;;;;;12.82;2.75;;;10.50;99.90;;;;;;5030774;28;20167;-47
2024/01/03 10:13:50;;;;;;;12.68;3.40;;;10.50;99.90;;;;;;5031492;28;20171;-46
2024/01/03 10:16:26;;;;;;;5.88;2.17;;;10.60;99.90;;;;;;5031505;28;20201;-47
2024/01/03 10:19:28;;;;;;;12.27;2.53;;;10.60;99.90;;;;;;5031552;28;20159;-46
2024/01/03 10:21:54;;;;;;;9.85;2.25;;;10.70;99.90;;;;;;5030138;28;20179;-48
2024/01/03 10:24:23;;;;;;;9.07;2.53;;;10.80;99.90;;;;;;5031304;28;20651;-48
2024/01/03 10:26:49;;;;;;;6.70;1.75;;;10.90;99.90;;;;;;5032493;28;20179;-46
2024/01/03 10:29:17;;;;;;;11.00;2.78;;;10.90;99.90;;;;;;5031147;28;20206;-46
2024/01/03 10:31:43;;;;;;;11.48;2.30;;;10.90;99.90;;;;;;5031603;28;20168;-46
2024/01/03 10:34:16;;;;;;;8.27;1.88;;;11.00;99.90;;;;;;5031090;28;20171;-46
2024/01/03 10:36:46;;;;;;;7.03;2.13;;;11.00;99.90;;;;;;5032500;28;20163;-46
2024/01/03 10:39:16;;;;;;;5.22;1.60;;;11.00;99.90;;;;;;5045379;28;20182;-46
2024/01/03 10:41:46;;;;;;;7.20;1.80;;;11.00;99.90;;;;;;5031142;28;20159;-46
2024/01/03 10:44:17;;;;;;;11.40;1.70;;;11.00;99.90;;;;;;5031391;28;20179;-46
2024/01/03 10:46:44;;;;;;;6.53;1.92;;;11.10;99.90;;;;;;5031198;28;20171;-46
2024/01/03 10:49:10;;;;;;;3.90;1.23;;;11.10;99.90;;;;;;5031063;28;20207;-47
2024/01/03 10:51:41;;;;;;;7.63;2.72;;;11.20;99.90;;;;;;5030350;28;20681;-47
2024/01/03 10:54:10;;;;;;;7.35;2.28;;;11.20;99.90;;;;;;5030487;28;20532;-46
2024/01/03 10:56:36;;;;;;;8.95;2.35;;;11.10;99.90;;;;;;5032222;28;20218;-48
2024/01/03 10:59:04;;;;;;;10.02;2.28;;;11.10;99.90;;;;;;5033866;28;20217;-50
2024/01/03 11:02:17;;;;;;;9.98;3.10;;;11.10;99.90;;;;;;5035152;28;20197;-46
2024/01/03 11:05:04;;;;;;;11.50;2.30;;;11.20;99.90;;;;;;5035093;28;20163;-46
2024/01/03 11:07:39;;;;;;;5.32;1.92;;;11.40;99.90;;;;;;5035002;28;20166;-48
2024/01/03 11:10:05;;;;;;;4.95;1.33;;;11.40;99.90;;;;;;5035379;28;20294;-47
2024/01/03 11:12:30;;;;;;;13.65;1.98;;;11.40;99.90;;;;;;5035115;28;20172;-47
2024/01/03 11:15:25;;;;;;;5.57;1.77;;;11.40;99.90;;;;;;5034997;28;20202;-49
2024/01/03 11:17:50;;;;;;;5.05;1.70;;;11.40;99.90;;;;;;5034391;28;20172;-47
2024/01/03 11:20:27;;;;;;;6.22;1.92;;;11.40;99.90;;;;;;5034731;28;20190;-49
2024/01/03 11:23:02;;;;;;;7.72;1.40;;;11.40;99.90;;;;;;5034705;28;20634;-48
2024/01/03 11:25:47;;;;;;;9.68;1.90;;;11.40;99.90;;;;;;5034545;28;20689;-46
2024/01/03 11:28:32;;;;;;;4.93;1.55;;;11.40;99.90;;;;;;5039427;28;20195;-47
2024/01/03 11:30:58;;;;;;;8.60;2.40;;;11.50;99.90;;;;;;5053909;28;20228;-49
2024/01/03 11:33:26;;;;;;;4.00;1.88;;;11.50;99.90;;;;;;5054658;28;20181;-49
2024/01/03 11:35:52;;;;;;;6.70;1.65;;;11.60;99.90;;;;;;5054310;28;20167;-48
2024/01/03 11:38:43;;;;;;;8.02;2.05;;;11.60;99.90;;;;;;5054167;28;20195;-53
2024/01/03 11:41:14;;;;;;;10.98;2.13;;;11.60;99.90;;;;;;5034141;28;20178;-49
2024/01/03 11:43:39;;;;;;;3.95;1.38;;;11.60;99.90;;;;;;5034431;28;20547;-51
2024/01/03 11:46:12;;;;;;;8.48;1.90;;;11.80;99.90;;;;;;5034623;28;20174;-47
2024/01/03 11:48:39;;;;;;;12.23;2.95;;;11.70;99.90;;;;;;5034634;28;20252;-48
2024/01/03 11:51:21;;;;;;;7.47;1.92;;;12.30;99.90;;;;;;5034796;28;20179;-47
2024/01/03 11:53:46;;;;;;;7.13;2.10;;;11.70;99.90;;;;;;5034145;28;20167;-46
2024/01/03 11:56:31;;;;;;;7.70;2.03;;;11.60;99.90;;;;;;5033892;28;20280;-46
2024/01/03 11:58:57;;;;;;;4.05;1.50;;;11.60;99.90;;;;;;5033998;28;20228;-46
2024/01/03 12:01:23;;;;;;;8.05;1.65;;;11.40;99.90;;;;;;5034147;28;20184;-46
2024/01/03 12:03:49;;;;;;;5.90;1.63;;;11.40;99.90;;;;;;5034208;28;20163;-45
2024/01/03 12:06:19;;;;;;;5.25;1.67;;;11.40;99.90;;;;;;5034102;28;20535;-47
2024/01/03 12:08:44;;;;;;;8.88;2.50;;;11.40;99.90;;;;;;5033992;28;20215;-47
2024/01/03 12:11:10;;;;;;;5.38;1.50;;;11.50;99.90;;;;;;5053519;28;20183;-50
2024/01/03 12:13:36;;;;;;;8.50;2.50;;;11.50;99.90;;;;;;5054102;28;20175;-47
2024/01/03 12:16:02;;;;;;;8.52;2.95;;;11.60;99.90;;;;;;5053405;28;20163;-47
2024/01/03 12:18:28;;;;;;;5.80;2.08;;;11.70;99.90;;;;;;5053673;28;21005;-47
2024/01/03 12:20:53;;;;;;;8.23;2.22;;;11.70;99.90;;;;;;5053186;28;20236;-47
2024/01/03 12:23:19;;;;;;;6.32;2.17;;;11.70;99.90;;;;;;5053126;28;20166;-46
2024/01/03 12:25:45;;;;;;;6.75;1.83;;;11.70;99.90;;;;;;5050764;28;20703;-46
2024/01/03 12:28:17;;;;;;;10.23;2.50;;;11.70;99.90;;;;;;5051824;28;20174;-51
2024/01/03 12:30:43;;;;;;;7.03;1.77;;;11.60;99.90;;;;;;5049810;28;20657;-50
2024/01/03 12:33:13;;;;;;;7.13;2.38;;;11.60;99.90;;;;;;5051415;28;20163;-52
2024/01/03 12:35:39;;;;;;;5.25;1.77;;;11.70;99.90;;;;;;5051387;28;20627;-48
2024/01/03 12:38:05;;;;;;;5.30;2.00;;;11.80;99.90;;;;;;5051673;28;20198;-43
2024/01/03 12:40:31;;;;;;;9.05;2.30;;;11.80;99.90;;;;;;5050655;28;20182;-48
2024/01/03 12:42:56;;;;;;;10.15;2.88;;;11.80;99.90;;;;;;5051062;28;20166;-45
2024/01/03 12:45:22;;;;;;;6.47;1.70;;;11.80;99.90;;;;;;5051171;28;20170;-48